Terminal Aerodrome Forecast
Issued by NWS

Home | Current Version | Previous Version | Text Only | Print | Product List | Glossary On
Versions: 1 2 3 4 5 6 7 8 9 10 11 12 13 14 15 16 17 18 19 20 21 22 23 24 25 26
897
FTUS41 KOKX 301346 AAA
TAFHPN
TAF AMD
KHPN 301346Z 3014/3112 VRB03KT 2SM BR BKN003 OVC015
     FM301500 18005KT P6SM SCT006 OVC050
      TEMPO 3015/3016 4SM -SHRA BKN006 OVC025
     FM301700 17007KT P6SM VCSH OVC250
     FM302200 17006KT P6SM BKN040
     FM310100 VRB03KT 4SM BR BKN040
      AMD NOT SKED=

USA.gov is the U.S. government's official web portal to all federal, state and local government web resources and services.